createdAt,value
2023-04-28T00:00:29.829Z,3.47
2023-04-28T00:02:57.665Z,3.75
2023-04-28T00:05:25.452Z,3.40
2023-04-28T00:07:52.983Z,3.28
2023-04-28T00:10:20.711Z,3.97
2023-04-28T00:12:48.114Z,3.75
2023-04-28T00:15:16.149Z,3.60
2023-04-28T00:17:44.310Z,3.20
2023-04-28T00:20:11.929Z,3.50
2023-04-28T00:22:39.333Z,3.40
2023-04-28T00:25:07.469Z,3.95
2023-04-28T00:27:35.100Z,3.87
2023-04-28T00:30:02.739Z,3.30
2023-04-28T00:32:32.337Z,3.20
2023-04-28T00:34:59.741Z,3.50
2023-04-28T00:37:27.131Z,3.30
2023-04-28T00:39:56.283Z,3.35
2023-04-28T00:42:24.129Z,3.03
2023-04-28T00:44:51.806Z,2.90
2023-04-28T00:47:19.624Z,3.10
2023-04-28T00:49:47.699Z,3.40
2023-04-28T00:52:15.273Z,3.28
2023-04-28T00:54:42.923Z,2.62
2023-04-28T00:57:10.764Z,2.72
2023-04-28T00:59:38.811Z,3.17
2023-04-28T01:02:07.727Z,3.67
2023-04-28T01:04:35.294Z,3.12
2023-04-28T01:07:02.799Z,2.85
2023-04-28T01:09:30.655Z,3.70
2023-04-28T01:11:58.435Z,3.22
2023-04-28T01:14:26.702Z,3.00
2023-04-28T01:16:54.568Z,3.70
2023-04-28T01:19:22.474Z,2.92
2023-04-28T01:21:50.521Z,2.85
2023-04-28T01:24:18.586Z,3.97
2023-04-28T01:26:46.463Z,3.50
2023-04-28T01:29:14.029Z,3.37
2023-04-28T01:31:41.990Z,3.20
2023-04-28T01:34:09.531Z,2.95
2023-04-28T01:36:37.894Z,3.47
2023-04-28T01:39:05.952Z,3.12
2023-04-28T01:41:36.599Z,3.33
2023-04-28T01:44:06.204Z,3.10
2023-04-28T01:46:34.637Z,3.03
2023-04-28T01:49:02.172Z,2.90
2023-04-28T01:51:29.582Z,3.22
2023-04-28T01:53:57.541Z,3.08
2023-04-28T01:56:25.160Z,3.10
2023-04-28T01:58:52.820Z,2.90
2023-04-28T02:01:20.777Z,3.10
2023-04-28T02:03:49.248Z,3.05
2023-04-28T02:06:17.084Z,3.15
2023-04-28T02:08:44.526Z,2.90
2023-04-28T02:11:13.159Z,2.72
2023-04-28T02:13:40.752Z,2.90
2023-04-28T02:16:08.167Z,2.75
2023-04-28T02:18:36.311Z,2.97
2023-04-28T02:21:11.813Z,2.83
2023-04-28T02:23:39.930Z,2.90
2023-04-28T02:26:07.720Z,2.50
2023-04-28T02:28:35.117Z,2.80
2023-04-28T02:31:09.825Z,2.90
2023-04-28T02:33:37.884Z,3.08
2023-04-28T02:36:06.068Z,3.03
2023-04-28T02:38:33.502Z,2.78
2023-04-28T02:41:02.500Z,3.60
2023-04-28T02:43:30.429Z,2.97
2023-04-28T02:45:57.795Z,3.30
2023-04-28T02:48:25.895Z,2.58
2023-04-28T02:50:53.840Z,2.90
2023-04-28T02:53:21.740Z,2.80
2023-04-28T02:55:49.633Z,2.85
2023-04-28T02:58:18.184Z,2.90
2023-04-28T03:00:46.403Z,2.60
2023-04-28T03:03:14.589Z,2.92
2023-04-28T03:05:42.321Z,2.75
2023-04-28T03:08:09.755Z,2.70
2023-04-28T03:10:37.403Z,3.00
2023-04-28T03:13:04.984Z,2.70
2023-04-28T03:15:32.436Z,2.42
2023-04-28T03:18:00.168Z,3.00
2023-04-28T03:20:27.885Z,2.90
2023-04-28T03:22:55.879Z,2.28
2023-04-28T03:25:23.643Z,3.03
2023-04-28T03:27:51.560Z,2.80
2023-04-28T03:30:19.098Z,2.65
2023-04-28T03:32:46.910Z,2.97
2023-04-28T03:35:14.606Z,2.75
2023-04-28T03:37:42.201Z,2.87
2023-04-28T03:40:10.501Z,2.58
2023-04-28T03:42:39.365Z,2.58
2023-04-28T03:45:08.488Z,3.37
2023-04-28T03:47:36.443Z,2.92
2023-04-28T03:50:04.318Z,2.22
2023-04-28T03:52:31.772Z,3.30
2023-04-28T03:54:59.514Z,2.53
2023-04-28T03:57:26.983Z,3.10
2023-04-28T03:59:54.423Z,2.70
2023-04-28T04:02:22.319Z,3.15
2023-04-28T04:04:50.310Z,2.72
2023-04-28T04:07:17.912Z,2.80
2023-04-28T04:09:45.332Z,3.72
2023-04-28T04:12:13.025Z,4.25
2023-04-28T04:14:40.791Z,4.85
2023-04-28T04:17:08.300Z,3.87
2023-04-28T04:19:35.989Z,3.65
2023-04-28T04:22:03.384Z,3.35
2023-04-28T04:24:31.243Z,3.37
2023-04-28T04:26:58.975Z,3.33
2023-04-28T04:29:27.482Z,3.58
2023-04-28T04:31:55.150Z,3.40
2023-04-28T04:34:22.849Z,2.95
2023-04-28T04:36:50.542Z,3.00
2023-04-28T04:39:18.750Z,3.03
2023-04-28T04:41:48.141Z,3.28
2023-04-28T04:44:18.395Z,3.08
2023-04-28T04:46:47.241Z,2.90
2023-04-28T04:49:15.699Z,2.80
2023-04-28T04:51:43.232Z,2.78
2023-04-28T04:54:11.202Z,2.20
2023-04-28T04:56:39.556Z,2.47
2023-04-28T04:59:07.280Z,2.40
2023-04-28T05:01:36.045Z,2.70
2023-04-28T05:04:03.844Z,2.62
2023-04-28T05:06:31.880Z,2.50
2023-04-28T05:08:59.762Z,2.33
2023-04-28T05:11:27.356Z,2.40
2023-04-28T05:13:54.815Z,2.62
2023-04-28T05:16:23.493Z,2.25
2023-04-28T05:18:51.420Z,2.60
2023-04-28T05:21:18.989Z,2.67
2023-04-28T05:23:46.912Z,2.50
2023-04-28T05:26:14.385Z,2.55
2023-04-28T05:28:41.939Z,2.42
2023-04-28T05:31:09.716Z,2.80
2023-04-28T05:33:37.277Z,2.67
2023-04-28T05:36:05.624Z,2.47
2023-04-28T05:38:33.914Z,2.25
2023-04-28T05:41:02.033Z,2.62
2023-04-28T05:43:29.571Z,2.37
2023-04-28T05:45:57.464Z,2.20
2023-04-28T05:48:24.927Z,2.60
2023-04-28T05:50:52.294Z,3.12
2023-04-28T05:53:20.134Z,2.40
2023-04-28T05:55:48.274Z,2.40
2023-04-28T05:58:15.779Z,2.47
2023-04-28T06:00:43.795Z,2.60
2023-04-28T06:03:14.469Z,2.37
2023-04-28T06:05:42.348Z,2.87
2023-04-28T06:08:10.325Z,2.08
2023-04-28T06:10:38.065Z,2.30
2023-04-28T06:13:06.539Z,2.50
2023-04-28T06:15:34.124Z,1.85
2023-04-28T06:18:02.200Z,2.67
2023-04-28T06:20:29.634Z,2.55
2023-04-28T06:22:57.394Z,2.87
2023-04-28T06:25:25.076Z,2.50
2023-04-28T06:27:52.516Z,2.30
2023-04-28T06:30:24.586Z,2.28
2023-04-28T06:32:52.450Z,2.37
2023-04-28T06:35:19.929Z,2.65
2023-04-28T06:37:47.363Z,2.08
2023-04-28T06:40:15.973Z,2.30
2023-04-28T06:42:43.637Z,2.53
2023-04-28T06:45:11.777Z,2.50
2023-04-28T06:47:40.770Z,2.85
2023-04-28T06:50:09.330Z,2.72
2023-04-28T06:52:39.563Z,2.15
2023-04-28T06:55:09.426Z,2.85
2023-04-28T06:57:38.263Z,2.10
2023-04-28T07:00:06.521Z,2.25
2023-04-28T07:02:35.166Z,2.00
2023-04-28T07:05:03.657Z,2.30
2023-04-28T07:07:31.278Z,2.17
2023-04-28T07:10:00.441Z,2.20
2023-04-28T07:12:27.990Z,2.15
2023-04-28T07:14:56.195Z,2.10
2023-04-28T07:17:23.962Z,2.00
2023-04-28T07:19:51.376Z,2.17
2023-04-28T07:22:18.763Z,2.00
2023-04-28T07:24:46.486Z,1.95
2023-04-28T07:27:14.464Z,2.10
2023-04-28T07:29:42.240Z,2.30
2023-04-28T07:32:10.675Z,2.53
2023-04-28T07:34:38.443Z,2.28
2023-04-28T07:37:06.796Z,2.30
2023-04-28T07:39:35.343Z,2.47
2023-04-28T07:42:03.439Z,2.12
2023-04-28T07:44:31.355Z,2.12
2023-04-28T07:46:59.762Z,2.10
2023-04-28T07:49:28.517Z,2.00
2023-04-28T07:51:56.809Z,1.90
2023-04-28T07:54:24.989Z,2.15
2023-04-28T07:56:52.434Z,2.10
2023-04-28T07:59:19.859Z,2.22
2023-04-28T08:01:47.557Z,1.90
2023-04-28T08:04:15.542Z,2.53
2023-04-28T08:06:43.368Z,1.95
2023-04-28T08:09:10.812Z,2.40
2023-04-28T08:11:38.540Z,2.17
2023-04-28T08:14:06.024Z,2.12
2023-04-28T08:16:36.595Z,2.25
2023-04-28T08:19:04.469Z,1.87
2023-04-28T08:21:32.844Z,2.22
2023-04-28T08:24:00.222Z,2.28
2023-04-28T08:26:27.975Z,2.12
2023-04-28T08:28:55.408Z,2.55
2023-04-28T08:31:23.854Z,1.87
2023-04-28T08:33:51.653Z,2.25
2023-04-28T08:36:19.121Z,2.03
2023-04-28T08:38:46.925Z,2.00
2023-04-28T08:41:17.891Z,1.67
2023-04-28T08:43:45.717Z,2.00
2023-04-28T08:46:14.647Z,2.10
2023-04-28T08:48:45.158Z,2.20
2023-04-28T08:51:16.965Z,2.08
2023-04-28T08:54:11.726Z,1.95
2023-04-28T08:56:34.565Z,2.22
2023-04-28T08:59:04.248Z,2.00
2023-04-28T09:01:32.198Z,2.12
2023-04-28T09:04:03.462Z,1.80
2023-04-28T09:06:38.300Z,2.05
2023-04-28T09:09:28.374Z,1.87
2023-04-28T09:11:59.596Z,2.05
2023-04-28T09:14:32.974Z,2.00
2023-04-28T09:17:01.171Z,1.92
2023-04-28T09:19:36.246Z,1.98
2023-04-28T09:22:17.742Z,2.08
2023-04-28T09:24:53.230Z,2.00
2023-04-28T09:27:27.176Z,1.80
2023-04-28T09:29:54.617Z,2.28
2023-04-28T09:32:23.201Z,1.92
2023-04-28T09:34:56.631Z,1.80
2023-04-28T09:37:30.782Z,2.00
2023-04-28T09:40:09.431Z,1.77
2023-04-28T09:42:37.080Z,1.95
2023-04-28T09:45:06.003Z,2.25
2023-04-28T09:47:43.276Z,1.90
2023-04-28T09:50:17.200Z,1.73
2023-04-28T09:52:49.085Z,1.65
2023-04-28T09:55:17.760Z,1.80
2023-04-28T09:57:45.515Z,2.00
2023-04-28T10:00:15.125Z,2.00
2023-04-28T10:02:44.179Z,1.92
2023-04-28T10:05:12.278Z,1.92
2023-04-28T10:07:40.263Z,1.65
2023-04-28T10:10:08.365Z,1.85
2023-04-28T10:12:38.791Z,1.73
2023-04-28T10:15:07.798Z,2.10
2023-04-28T10:17:35.619Z,2.20
2023-04-28T10:20:03.522Z,1.98
2023-04-28T10:22:33.732Z,2.20
2023-04-28T10:25:36.879Z,1.92
2023-04-28T10:28:07.987Z,2.10
2023-04-28T10:30:36.131Z,2.10
2023-04-28T10:33:06.692Z,2.00
2023-04-28T10:35:36.398Z,1.65
2023-04-28T10:38:10.820Z,2.10
2023-04-28T10:40:45.465Z,1.70
2023-04-28T10:43:14.339Z,1.75
2023-04-28T10:46:01.753Z,2.00
2023-04-28T10:48:29.866Z,2.30
2023-04-28T10:51:06.992Z,1.83
2023-04-28T10:53:49.102Z,2.10
2023-04-28T10:56:21.608Z,1.83
2023-04-28T10:58:50.820Z,1.98
2023-04-28T11:01:21.571Z,1.90
2023-04-28T11:04:04.760Z,1.70
2023-04-28T11:06:36.705Z,2.08
2023-04-28T11:09:33.024Z,1.55
2023-04-28T11:12:00.346Z,1.85
2023-04-28T11:14:35.192Z,1.83
2023-04-28T11:17:04.160Z,1.55
2023-04-28T11:19:31.642Z,1.55
2023-04-28T11:22:03.158Z,1.95
2023-04-28T11:24:30.621Z,1.60
2023-04-28T11:26:58.910Z,1.95
2023-04-28T11:29:40.288Z,1.80
2023-04-28T11:32:09.454Z,1.70
2023-04-28T11:34:37.135Z,1.67
2023-04-28T11:37:05.998Z,1.50
2023-04-28T11:39:34.007Z,2.20
2023-04-28T11:42:09.950Z,2.20
2023-04-28T11:44:38.078Z,1.92
2023-04-28T11:47:06.318Z,2.20
2023-04-28T11:49:44.297Z,2.37
2023-04-28T11:52:12.280Z,2.50
2023-04-28T11:54:42.460Z,3.72
2023-04-28T11:59:47.820Z,3.10
2023-04-28T12:02:17.055Z,3.05
2023-04-28T12:04:44.965Z,2.70
2023-04-28T12:07:18.659Z,3.28
2023-04-28T12:09:48.257Z,3.25
2023-04-28T12:15:05.597Z,2.85
2023-04-28T12:17:37.857Z,3.08
2023-04-28T12:20:11.756Z,3.12
2023-04-28T12:22:48.978Z,2.92
2023-04-28T12:25:17.849Z,2.87
2023-04-28T12:28:04.791Z,2.75
2023-04-28T12:30:33.993Z,3.00
2023-04-28T12:33:01.513Z,3.00
2023-04-28T12:35:29.079Z,2.50
2023-04-28T12:37:58.448Z,2.83
2023-04-28T12:40:26.228Z,3.00
2023-04-28T12:42:53.854Z,2.62
2023-04-28T12:45:21.916Z,3.03
2023-04-28T12:47:49.443Z,3.03
2023-04-28T12:50:16.904Z,2.62
2023-04-28T12:52:44.611Z,2.97
2023-04-28T12:55:12.035Z,2.50
2023-04-28T12:57:39.810Z,2.90
2023-04-28T13:00:08.789Z,3.20
2023-04-28T13:02:36.929Z,2.78
2023-04-28T13:05:04.697Z,2.60
2023-04-28T13:07:35.796Z,2.05
2023-04-28T13:10:03.208Z,2.17
2023-04-28T13:12:30.679Z,2.65
2023-04-28T13:14:58.374Z,2.40
2023-04-28T13:17:26.597Z,2.53
2023-04-28T13:19:54.287Z,2.42
2023-04-28T13:22:21.959Z,2.25
2023-04-28T13:24:49.342Z,2.65
2023-04-28T13:27:16.765Z,2.30
2023-04-28T13:29:44.553Z,2.37
2023-04-28T13:32:11.982Z,2.70
2023-04-28T13:34:40.236Z,2.67
2023-04-28T13:37:08.038Z,2.50
2023-04-28T13:39:35.510Z,2.58
2023-04-28T13:42:03.047Z,2.47
2023-04-28T13:44:30.793Z,2.80
2023-04-28T13:46:58.211Z,2.30
2023-04-28T13:49:25.728Z,2.67
2023-04-28T13:51:53.436Z,2.47
2023-04-28T13:54:21.422Z,2.72
2023-04-28T13:56:48.892Z,2.87
2023-04-28T13:59:16.751Z,3.03
2023-04-28T14:01:44.303Z,2.67
2023-04-28T14:04:12.279Z,2.25
2023-04-28T14:06:39.827Z,2.62
2023-04-28T14:09:07.379Z,3.20
2023-04-28T14:11:35.032Z,2.80
2023-04-28T14:14:02.586Z,2.60
2023-04-28T14:16:30.666Z,2.80
2023-04-28T14:18:58.860Z,2.55
2023-04-28T14:21:26.615Z,2.20
2023-04-28T14:23:54.129Z,2.85
2023-04-28T14:26:23.848Z,2.30
2023-04-28T14:28:51.266Z,2.20
2023-04-28T14:31:19.028Z,2.30
2023-04-28T14:33:46.988Z,2.45
2023-04-28T14:36:14.591Z,2.45
2023-04-28T14:38:42.161Z,2.42
2023-04-28T14:41:09.942Z,2.42
2023-04-28T14:43:38.083Z,2.30
2023-04-28T14:46:05.840Z,2.40
2023-04-28T14:48:33.593Z,2.90
2023-04-28T14:51:01.135Z,2.47
2023-04-28T14:53:28.678Z,2.47
2023-04-28T14:56:01.988Z,2.30
2023-04-28T14:58:35.365Z,2.75
2023-04-28T15:01:03.382Z,2.40
2023-04-28T15:03:30.986Z,2.33
2023-04-28T15:05:58.509Z,2.60
2023-04-28T15:08:27.716Z,2.28
2023-04-28T15:10:56.824Z,2.60
2023-04-28T15:13:28.568Z,2.45
2023-04-28T15:15:56.458Z,2.72
2023-04-28T15:18:24.498Z,2.55
2023-04-28T15:20:51.918Z,2.70
2023-04-28T15:23:20.313Z,2.28
2023-04-28T15:25:49.903Z,2.70
2023-04-28T15:28:17.333Z,3.10
2023-04-28T15:30:45.027Z,2.90
2023-04-28T15:33:17.754Z,2.67
2023-04-28T15:35:45.555Z,3.20
2023-04-28T15:38:13.043Z,3.17
2023-04-28T15:40:40.732Z,2.40
2023-04-28T15:43:08.423Z,2.83
2023-04-28T15:45:37.289Z,2.80
2023-04-28T15:48:09.174Z,3.10
2023-04-28T15:50:37.425Z,2.60
2023-04-28T15:53:04.804Z,2.50
2023-04-28T15:55:32.196Z,2.83
2023-04-28T15:58:00.805Z,2.87
2023-04-28T16:00:28.285Z,2.85
2023-04-28T16:02:56.043Z,3.12
2023-04-28T16:05:23.499Z,3.28
2023-04-28T16:07:52.630Z,2.70
2023-04-28T16:10:20.510Z,3.20
2023-04-28T16:12:47.959Z,2.70
2023-04-28T16:15:15.416Z,3.37
2023-04-28T16:17:44.291Z,3.00
2023-04-28T16:20:12.129Z,2.65
2023-04-28T16:22:40.055Z,3.05
2023-04-28T16:25:08.087Z,3.87
2023-04-28T16:27:35.631Z,3.87
2023-04-28T16:30:04.988Z,4.00
2023-04-28T16:32:33.589Z,3.70
2023-04-28T16:35:01.246Z,3.30
2023-04-28T16:37:28.767Z,3.42
2023-04-28T16:39:56.690Z,3.30
2023-04-28T16:42:24.119Z,3.62
2023-04-28T16:44:52.854Z,3.40
2023-04-28T16:47:21.132Z,3.80
2023-04-28T16:49:48.974Z,3.20
2023-04-28T16:52:16.777Z,4.22
2023-04-28T16:54:44.545Z,3.42
2023-04-28T16:57:11.959Z,3.92
2023-04-28T16:59:39.405Z,3.33
2023-04-28T17:02:07.224Z,3.60
2023-04-28T17:04:35.386Z,3.20
2023-04-28T17:07:06.268Z,3.95
2023-04-28T17:09:33.989Z,3.45
2023-04-28T17:12:01.457Z,3.25
2023-04-28T17:14:28.823Z,3.28
2023-04-28T17:16:56.606Z,3.55
2023-04-28T17:19:23.993Z,3.87
2023-04-28T17:21:52.818Z,3.45
2023-04-28T17:24:20.608Z,3.58
2023-04-28T17:26:48.016Z,3.53
2023-04-28T17:29:15.534Z,3.45
2023-04-28T17:31:43.372Z,4.57
2023-04-28T17:34:11.033Z,3.17
2023-04-28T17:36:38.533Z,3.53
2023-04-28T17:39:06.217Z,3.25
2023-04-28T17:41:33.707Z,4.00
2023-04-28T17:44:01.609Z,3.78
2023-04-28T17:46:29.486Z,3.72
2023-04-28T17:48:56.876Z,3.62
2023-04-28T17:51:24.538Z,3.50
2023-04-28T17:53:52.782Z,2.70
2023-04-28T17:56:20.323Z,3.12
2023-04-28T17:58:47.787Z,3.90
2023-04-28T18:01:15.662Z,3.40
2023-04-28T18:03:43.664Z,3.53
2023-04-28T18:06:11.578Z,3.72
2023-04-28T18:08:40.096Z,3.10
2023-04-28T18:11:10.242Z,2.67
2023-04-28T18:13:38.323Z,3.15
2023-04-28T18:16:05.975Z,3.50
2023-04-28T18:18:35.636Z,3.30
2023-04-28T18:21:03.480Z,3.12
2023-04-28T18:23:31.096Z,2.87
2023-04-28T18:25:59.138Z,2.75
2023-04-28T18:28:26.696Z,3.42
2023-04-28T18:30:54.375Z,3.22
2023-04-28T18:33:26.236Z,2.97
2023-04-28T18:36:01.771Z,3.55
2023-04-28T18:38:31.799Z,3.10
2023-04-28T18:40:59.425Z,3.17
2023-04-28T18:43:28.176Z,2.87
2023-04-28T18:45:56.368Z,3.20
2023-04-28T18:48:24.819Z,2.60
2023-04-28T18:50:55.624Z,3.33
2023-04-28T18:53:23.597Z,2.80
2023-04-28T18:55:54.891Z,2.95
2023-04-28T18:58:22.952Z,3.05
2023-04-28T19:00:51.130Z,3.12
2023-04-28T19:03:21.289Z,2.33
2023-04-28T19:05:50.093Z,2.70
2023-04-28T19:08:17.839Z,2.80
2023-04-28T19:10:46.058Z,2.80
2023-04-28T19:13:16.729Z,2.83
2023-04-28T19:15:44.562Z,3.47
2023-04-28T19:18:13.174Z,3.10
2023-04-28T19:20:42.833Z,2.72
2023-04-28T19:23:11.546Z,2.70
2023-04-28T19:25:39.974Z,3.08
2023-04-28T19:28:08.480Z,2.97
2023-04-28T19:30:37.836Z,2.50
2023-04-28T19:33:06.613Z,2.58
2023-04-28T19:35:35.544Z,2.62
2023-04-28T19:38:03.706Z,2.67
2023-04-28T19:40:31.985Z,2.45
2023-04-28T19:43:00.508Z,2.75
2023-04-28T19:45:28.693Z,2.87
2023-04-28T19:47:57.193Z,2.58
2023-04-28T19:50:26.198Z,2.53
2023-04-28T19:52:54.472Z,2.35
2023-04-28T19:55:23.494Z,2.40
2023-04-28T19:57:53.581Z,3.17
2023-04-28T20:00:22.977Z,2.35
2023-04-28T20:02:52.941Z,2.50
2023-04-28T20:05:21.414Z,2.70
2023-04-28T20:07:49.689Z,2.40
2023-04-28T20:10:19.633Z,2.67
2023-04-28T20:12:47.578Z,2.30
2023-04-28T20:15:18.485Z,2.80
2023-04-28T20:17:47.353Z,2.80
2023-04-28T20:20:14.934Z,2.80
2023-04-28T20:22:42.482Z,2.53
2023-04-28T20:25:11.037Z,2.90
2023-04-28T20:27:38.881Z,2.55
2023-04-28T20:30:07.793Z,3.25
2023-04-28T20:32:37.192Z,2.87
2023-04-28T20:35:06.803Z,3.47
2023-04-28T20:37:34.191Z,2.92
2023-04-28T20:40:01.885Z,2.78
2023-04-28T20:42:29.351Z,2.75
2023-04-28T20:44:56.825Z,2.85
2023-04-28T20:47:24.776Z,2.75
2023-04-28T20:49:52.555Z,2.90
2023-04-28T20:52:20.430Z,2.15
2023-04-28T20:54:48.121Z,2.75
2023-04-28T20:57:15.562Z,3.08
2023-04-28T20:59:42.962Z,2.60
2023-04-28T21:02:11.044Z,3.35
2023-04-28T21:04:38.505Z,2.33
2023-04-28T21:07:06.100Z,2.78
2023-04-28T21:09:35.819Z,2.17
2023-04-28T21:12:03.697Z,2.78
2023-04-28T21:14:31.148Z,2.70
2023-04-28T21:16:58.951Z,3.15
2023-04-28T21:19:26.565Z,2.85
2023-04-28T21:21:54.222Z,2.40
2023-04-28T21:24:22.125Z,2.35
2023-04-28T21:26:49.596Z,3.22
2023-04-28T21:29:18.492Z,3.33
2023-04-28T21:31:46.991Z,2.80
2023-04-28T21:34:14.612Z,4.32
2023-04-28T21:36:42.183Z,3.10
2023-04-28T21:39:10.456Z,3.35
2023-04-28T21:41:38.393Z,3.17
2023-04-28T21:44:06.086Z,2.80
2023-04-28T21:46:34.292Z,2.92
2023-04-28T21:49:01.790Z,3.65
2023-04-28T21:51:29.427Z,2.67
2023-04-28T21:53:57.227Z,3.08
2023-04-28T21:56:24.659Z,3.58
2023-04-28T21:58:52.098Z,2.75
2023-04-28T22:01:19.897Z,2.83
2023-04-28T22:03:47.876Z,2.90
2023-04-28T22:06:18.029Z,2.87
2023-04-28T22:08:46.588Z,2.70
2023-04-28T22:11:14.291Z,2.85
2023-04-28T22:13:41.665Z,2.95
2023-04-28T22:16:09.196Z,2.87
2023-04-28T22:18:37.019Z,2.62
2023-04-28T22:21:06.901Z,2.62
2023-04-28T22:23:34.299Z,3.20
2023-04-28T22:26:01.998Z,2.83
2023-04-28T22:28:29.521Z,2.47
2023-04-28T22:30:57.278Z,2.42
2023-04-28T22:33:24.990Z,2.42
2023-04-28T22:35:52.398Z,2.70
2023-04-28T22:38:19.775Z,2.78
2023-04-28T22:40:47.454Z,2.35
2023-04-28T22:43:14.983Z,2.37
2023-04-28T22:45:48.051Z,2.67
2023-04-28T22:48:16.770Z,2.28
2023-04-28T22:50:46.093Z,2.10
2023-04-28T22:53:13.572Z,2.60
2023-04-28T22:55:42.990Z,2.42
2023-04-28T22:58:10.878Z,2.20
2023-04-28T23:00:38.283Z,2.83
2023-04-28T23:03:06.093Z,2.37
2023-04-28T23:05:36.568Z,2.87
2023-04-28T23:08:04.727Z,2.30
2023-04-28T23:10:32.391Z,2.45
2023-04-28T23:13:00.193Z,2.60
2023-04-28T23:15:27.570Z,2.33
2023-04-28T23:17:55.389Z,2.28
2023-04-28T23:20:22.798Z,2.33
2023-04-28T23:22:50.515Z,1.80
2023-04-28T23:25:18.455Z,2.10
2023-04-28T23:27:46.076Z,2.05
2023-04-28T23:30:14.903Z,1.90
2023-04-28T23:32:42.845Z,2.17
2023-04-28T23:35:10.682Z,2.25
2023-04-28T23:37:38.103Z,2.10
2023-04-28T23:40:06.811Z,2.15
2023-04-28T23:42:34.327Z,2.05
2023-04-28T23:45:01.757Z,2.20
2023-04-28T23:47:30.708Z,1.87
2023-04-28T23:49:58.190Z,2.30
2023-04-28T23:52:25.590Z,2.20
2023-04-28T23:54:53.884Z,2.50
2023-04-28T23:57:21.775Z,2.15
2023-04-28T23:59:49.296Z,2.00
